Hetton le Hole, United Kingdom
Current Conditions -  °F | °C
As of 5:50 AM on Thursday 23 Oct 2014 (Local Time) from EGNT Reporting Station
Scattered Clouds Scattered Clouds  
Wind Chill: 12°   Ceiling: Unl
Heat Index: 12°   Visibility: 6mi
Dew Point:   Wind: 6mph
Humidity: 72%   Direction: 220°SW
Pressure: 29.88"   Gusts: NA
Location:  54.82°N, 1.45°W
Report Text: EGNT 230450Z 22005KT 110V280 9999 SCT020 12/07 Q1012
Loading
Personal Weather Stations






























Interactive Weather Map
Tropical Storm Tracking
New forecast layout! Learn more

10-Day Weather Forecast

Advertisements
Track Severe Weather on mobile